Details From YPGV - Gove
To YPDN - Darwin Intl
Flight Number -
Tags Generated
Created
Modified
Stats Distance 349 nm / 645 km
Max Altitude 0 ft / 0 m
Waypoints 3
Social Downloads 0
Likes 0
Share VATSIM

Download

Looking for another format? Having issues loading an existing format? Contact us
Advertisement - Login to hide

Notes

Generated

Route

YPGV KOOLI YPDN

ID Type Via Altitude Latitude Longitude Leg Dist Tot Dist Heading (true) Name
O YPGV APT - 0 ft / 0 m -12.26261˚ 136.80949˚ - 0 nm - -
KOOLI FIX - 0 ft / 0 m -12.40316˚ 131.11084˚ 334 nm 334 nm 268° / 269° -
O YPDN APT - 0 ft / 0 m -12.40889˚ 130.87067˚ 14 nm 348 nm 269° / 269° -

Altitude Profile

Advertisement - Login to hide

Weather


0- 5 10 15 20 25 30 35+ Temperature / ° C

Clouds and Precipitation
Forecast for 2017-12-18 18:00 UTC. Updated 4 minutes ago

Ground ~20,000 ft ~40,000 ft Winds

YPGV

Details ICAO YPGV (GOV)
Name Gove
Region Australia
Timezone Australia/Darwin (UTC+9.5)
Stats Elevation 179 ft / 55 m (AMSL)
Location -12.269216° 136.817569°
Runways 1
Magnetic Variation 3.865° E

METAR

YPGV 181500Z AUTO 03004KT 9999 // NCD 28/24 Q1008

Decode

TAF

TAF YPGV 181225Z 1814/1902 02005KT 9999 FEW025

Decode

Departure Runways

ID Width Length Bearing (true) Bearing (mag) Surface Threshold Offset Overrun Length
13 148 ft / 45 m 7,254 ft / 2,211 m 130.10° 126.23° Asphalt 0 ft / 0 m 180 ft / 55 m
31 148 ft / 45 m 7,254 ft / 2,211 m 310.10° 306.23° Asphalt 0 ft / 0 m 554 ft / 169 m

YPDN

Details ICAO YPDN (DRW)
Name Darwin Intl
Region Australia
Timezone Australia/Darwin (UTC+9.5)
Stats Elevation 102 ft / 31 m (AMSL)
Location -12.415064° 130.875278°
Runways 2
Magnetic Variation 2.669° E

METAR

YPDN 181500Z 34006KT 9999 FEW020 SCT205 29/24 Q1008

Decode

TAF

TAF YPDN 181125Z 1812/1918 33008KT 9999 SCT020

Decode

Destination Runways

ID Width Length Bearing (true) Bearing (mag) Surface Threshold Offset Overrun Length
11 197 ft / 60 m 10,997 ft / 3,352 m 109.02° 106.35° Asphalt 0 ft / 0 m 0 ft / 0 m
18 98 ft / 30 m 5,029 ft / 1,533 m 179.85° 177.18° Asphalt 0 ft / 0 m 0 ft / 0 m
29 197 ft / 60 m 10,997 ft / 3,352 m 289.02° 286.35° Asphalt 0 ft / 0 m 0 ft / 0 m
36 98 ft / 30 m 5,029 ft / 1,533 m 359.85° 357.18° Asphalt 0 ft / 0 m 0 ft / 0 m

Approach Navaids

Runway Type Ident Frequency Range Bearing (true) Bearing (mag) Slope Elevation
29 Localiser IDN 109.70 MHz 18 nm / 33 km 289.00° 286.33° - 103 ft / 31 m (AMSL)
29 Glidescope IDN 109.70 MHz 10 nm / 19 km 289.02° 286.35° 3.00° 103 ft / 31 m (AMSL)

Popular Alternatives